Terminal Aerodrome Forecast
Issued by NWS

Home | Current Version | Previous Version | Graphics & Text | Print | Product List | Glossary On
Versions: 1 2 3 4 5 6 7 8 9 10 11
000
FTUS45 KGGW 311142
TAFSDY
TAF
KSDY 311142Z 3112/0112 VRB05KT P6SM OVC070
     FM311400 27010KT P6SM SCT100
     FM010300 25006KT P6SM FEW250
      AMD LTD TO CLD VIS AND WIND=

USA.gov is the U.S. government's official web portal to all federal, state and local government web resources and services.